createdAt,value
2023-04-09T00:03:30.285Z,3.43
2023-04-09T00:08:33.915Z,3.37
2023-04-09T00:13:39.743Z,3.27
2023-04-09T00:18:45.053Z,3.36
2023-04-09T00:23:48.236Z,3.37
2023-04-09T00:28:51.978Z,3.27
2023-04-09T00:33:57.398Z,3.24
2023-04-09T00:39:00.846Z,3.19
2023-04-09T00:44:04.268Z,3.23
2023-04-09T00:49:09.142Z,3.23
2023-04-09T00:54:12.630Z,3.21
2023-04-09T00:59:16.773Z,3.23
2023-04-09T01:04:22.863Z,3.23
2023-04-09T01:09:30.617Z,3.22
2023-04-09T01:14:40.331Z,3.21
2023-04-09T01:19:52.442Z,3.16
2023-04-09T01:25:15.788Z,3.19
2023-04-09T01:30:21.741Z,3.16
2023-04-09T01:35:27.385Z,3.16
2023-04-09T01:40:31.151Z,3.11
2023-04-09T01:45:36.460Z,3.19
2023-04-09T01:50:40.505Z,3.12
2023-04-09T01:55:44.052Z,3.12
2023-04-09T02:00:50.100Z,3.12
2023-04-09T02:06:00.891Z,3.14
2023-04-09T02:11:06.993Z,3.14
2023-04-09T02:16:13.749Z,3.19
2023-04-09T02:21:18.728Z,3.17
2023-04-09T02:26:22.146Z,3.18
2023-04-09T02:31:27.306Z,3.17
2023-04-09T02:36:31.207Z,3.14
2023-04-09T02:41:34.664Z,3.13
2023-04-09T02:46:40.225Z,3.14
2023-04-09T02:51:43.733Z,3.14
2023-04-09T02:56:47.211Z,3.15
2023-04-09T03:01:52.136Z,3.19
2023-04-09T03:06:55.458Z,3.37
2023-04-09T03:11:59.021Z,3.40
2023-04-09T03:17:03.913Z,3.53
2023-04-09T03:22:07.085Z,3.66
2023-04-09T03:27:10.574Z,3.73
2023-04-09T03:32:17.843Z,4.01
2023-04-09T03:37:22.451Z,4.27
2023-04-09T03:42:25.975Z,4.55
2023-04-09T03:47:30.927Z,5.10
2023-04-09T03:52:34.085Z,5.72
2023-04-09T03:57:37.604Z,6.16
2023-04-09T04:02:42.782Z,6.80
2023-04-09T04:07:46.414Z,7.21
2023-04-09T04:12:49.867Z,7.83
2023-04-09T04:17:54.741Z,8.83
2023-04-09T04:22:57.888Z,10.76
2023-04-09T04:28:01.558Z,10.32
2023-04-09T04:33:06.479Z,10.20
2023-04-09T04:38:09.713Z,10.15
2023-04-09T04:43:13.106Z,10.04
2023-04-09T04:48:18.037Z,10.24
2023-04-09T04:53:21.493Z,10.65
2023-04-09T04:58:24.985Z,12.38
2023-04-09T05:03:29.968Z,15.72
2023-04-09T05:08:33.532Z,15.32
2023-04-09T05:13:36.985Z,18.43
2023-04-09T05:18:41.798Z,18.54
2023-04-09T05:23:45.211Z,19.51
2023-04-09T05:28:48.758Z,20.82
2023-04-09T05:33:54.353Z,22.17
2023-04-09T05:38:57.805Z,22.77
2023-04-09T05:44:01.431Z,21.32
2023-04-09T05:49:06.377Z,21.39
2023-04-09T05:54:09.896Z,23.99
2023-04-09T05:59:13.418Z,24.52
2023-04-09T06:04:18.526Z,25.01
2023-04-09T06:09:22.267Z,27.84
2023-04-09T06:14:25.823Z,29.56
2023-04-09T06:19:32.986Z,25.82
2023-04-09T06:24:36.639Z,25.26
2023-04-09T06:29:40.150Z,27.63
2023-04-09T06:34:45.130Z,27.99
2023-04-09T06:40:00.471Z,29.15
2023-04-09T06:45:08.657Z,29.25
2023-04-09T06:50:13.676Z,29.79
2023-04-09T06:55:17.134Z,29.69
2023-04-09T07:00:20.272Z,28.61
2023-04-09T07:05:25.374Z,31.44
2023-04-09T07:10:28.831Z,33.04
2023-04-09T07:15:33.727Z,32.21
2023-04-09T07:20:38.669Z,32.43
2023-04-09T07:25:42.487Z,33.68
2023-04-09T07:30:47.152Z,33.23
2023-04-09T07:35:53.263Z,33.95
2023-04-09T07:40:57.022Z,33.59
2023-04-09T07:46:00.485Z,33.38
2023-04-09T07:51:06.323Z,31.78
2023-04-09T07:56:09.842Z,31.54
2023-04-09T08:01:13.458Z,31.92
2023-04-09T08:06:18.694Z,31.84
2023-04-09T08:11:25.389Z,31.59
2023-04-09T08:16:30.386Z,32.32
2023-04-09T08:21:35.939Z,30.68
2023-04-09T08:26:39.700Z,29.36
2023-04-09T08:31:43.609Z,29.67
2023-04-09T08:36:50.049Z,28.51
2023-04-09T08:41:54.078Z,25.67
2023-04-09T08:46:59.175Z,23.91
2023-04-09T08:52:05.077Z,23.03
2023-04-09T08:57:09.217Z,22.21
2023-04-09T09:02:13.187Z,20.75
2023-04-09T09:07:18.538Z,20.14
2023-04-09T09:12:36.238Z,20.38
2023-04-09T09:17:56.125Z,19.83
2023-04-09T09:23:01.712Z,20.24
2023-04-09T09:28:09.782Z,20.01
2023-04-09T09:33:13.847Z,19.68
2023-04-09T09:38:19.359Z,19.60
2023-04-09T09:43:23.221Z,19.37
2023-04-09T09:48:28.324Z,19.13
2023-04-09T09:53:34.563Z,19.27
2023-04-09T09:58:39.949Z,18.77
2023-04-09T10:03:45.583Z,18.98
2023-04-09T10:08:51.246Z,18.78
2023-04-09T10:13:59.027Z,18.61
2023-04-09T10:19:03.651Z,18.84
2023-04-09T10:24:09.832Z,19.09
2023-04-09T10:29:15.171Z,19.05
2023-04-09T10:34:19.653Z,19.37
2023-04-09T10:39:27.265Z,19.52
2023-04-09T10:44:32.106Z,19.12
2023-04-09T10:49:38.427Z,19.02
2023-04-09T10:54:46.102Z,18.86
2023-04-09T10:59:51.909Z,18.59
2023-04-09T11:05:06.845Z,18.84
2023-04-09T11:10:12.126Z,18.16
2023-04-09T11:15:18.948Z,18.32
2023-04-09T11:20:23.819Z,18.12
2023-04-09T11:25:30.464Z,18.00
2023-04-09T11:30:35.206Z,17.90
2023-04-09T11:35:38.852Z,18.00
2023-04-09T11:40:48.904Z,17.93
2023-04-09T11:45:52.913Z,17.84
2023-04-09T11:50:56.667Z,17.78
2023-04-09T11:56:01.760Z,17.74
2023-04-09T12:01:05.333Z,17.72
2023-04-09T12:06:11.039Z,17.60
2023-04-09T12:11:17.158Z,17.56
2023-04-09T12:16:21.878Z,17.30
2023-04-09T12:21:27.145Z,17.45
2023-04-09T12:26:32.097Z,17.56
2023-04-09T12:31:36.270Z,17.22
2023-04-09T12:36:41.639Z,17.03
2023-04-09T12:41:46.489Z,16.92
2023-04-09T12:46:50.279Z,16.93
2023-04-09T12:52:13.802Z,16.80
2023-04-09T12:57:18.674Z,16.81
2023-04-09T13:02:31.988Z,16.46
2023-04-09T13:07:35.627Z,16.05
2023-04-09T13:12:51.602Z,16.00
2023-04-09T13:18:14.768Z,16.00
2023-04-09T13:23:26.977Z,15.95
2023-04-09T13:28:31.848Z,15.62
2023-04-09T13:33:55.439Z,14.99
2023-04-09T13:39:04.386Z,14.46
2023-04-09T13:44:28.111Z,14.50
2023-04-09T13:49:51.606Z,14.23
2023-04-09T13:55:13.614Z,13.97
2023-04-09T14:00:37.370Z,13.97
2023-04-09T14:05:41.040Z,13.65
2023-04-09T14:10:44.526Z,13.42
2023-04-09T14:15:50.225Z,13.25
2023-04-09T14:20:56.114Z,13.31
2023-04-09T14:25:59.686Z,13.19
2023-04-09T14:31:04.918Z,13.23
2023-04-09T14:36:09.181Z,13.33
2023-04-09T14:41:12.714Z,13.34
2023-04-09T14:46:17.722Z,13.51
2023-04-09T14:51:21.307Z,13.56
2023-04-09T14:56:25.581Z,13.71
2023-04-09T15:01:32.570Z,13.82
2023-04-09T15:06:36.633Z,13.88
2023-04-09T15:11:40.116Z,13.90
2023-04-09T15:16:45.074Z,13.93
2023-04-09T15:21:48.644Z,13.87
2023-04-09T15:26:52.195Z,13.83
2023-04-09T15:31:57.151Z,13.70
2023-04-09T15:37:00.740Z,13.57
2023-04-09T15:42:04.456Z,13.44
2023-04-09T15:47:09.648Z,13.39
2023-04-09T15:52:13.293Z,13.29
2023-04-09T15:57:16.740Z,13.13
2023-04-09T16:02:23.506Z,13.06
2023-04-09T16:07:28.889Z,12.99
2023-04-09T16:12:32.427Z,12.84
2023-04-09T16:17:40.804Z,12.76
2023-04-09T16:22:44.834Z,12.60
2023-04-09T16:27:48.293Z,12.37
2023-04-09T16:32:53.151Z,12.21
2023-04-09T16:37:56.847Z,11.97
2023-04-09T16:43:00.474Z,11.73
2023-04-09T16:48:06.478Z,11.48
2023-04-09T16:53:10.200Z,11.19
2023-04-09T16:58:13.726Z,11.01
2023-04-09T17:03:18.750Z,10.81
2023-04-09T17:08:24.519Z,10.64
2023-04-09T17:13:28.029Z,10.49
2023-04-09T17:18:32.960Z,10.34
2023-04-09T17:23:36.437Z,10.04
2023-04-09T17:28:39.918Z,9.80
2023-04-09T17:33:47.229Z,9.75
2023-04-09T17:38:52.330Z,9.56
2023-04-09T17:43:56.529Z,9.44
2023-04-09T17:49:01.763Z,9.30
2023-04-09T17:54:05.564Z,9.13
2023-04-09T17:59:08.985Z,9.00
2023-04-09T18:04:14.101Z,8.83
2023-04-09T18:09:17.820Z,8.63
2023-04-09T18:14:21.420Z,8.54
2023-04-09T18:19:26.520Z,8.36
2023-04-09T18:24:30.395Z,8.27
2023-04-09T18:29:33.853Z,8.18
2023-04-09T18:34:38.733Z,8.08
2023-04-09T18:39:42.046Z,8.01
2023-04-09T18:44:45.892Z,7.84
2023-04-09T18:49:50.945Z,7.81
2023-04-09T18:54:54.461Z,7.73
2023-04-09T18:59:57.920Z,7.65
2023-04-09T19:05:03.458Z,7.59
2023-04-09T19:10:07.779Z,7.51
2023-04-09T19:15:12.469Z,7.43
2023-04-09T19:20:17.615Z,7.36
2023-04-09T19:25:21.578Z,7.27
2023-04-09T19:30:25.050Z,7.22
2023-04-09T19:35:30.175Z,7.19
2023-04-09T19:40:33.780Z,7.19
2023-04-09T19:45:37.928Z,7.26
2023-04-09T19:50:43.663Z,7.36
2023-04-09T19:55:47.200Z,7.34
2023-04-09T20:00:51.430Z,7.34
2023-04-09T20:05:56.539Z,7.46
2023-04-09T20:11:00.001Z,7.53
2023-04-09T20:16:03.881Z,7.56
2023-04-09T20:21:09.430Z,7.63
2023-04-09T20:26:13.721Z,7.63
2023-04-09T20:31:17.332Z,7.75
2023-04-09T20:36:22.317Z,7.86
2023-04-09T20:41:25.495Z,7.95
2023-04-09T20:46:28.966Z,7.91
2023-04-09T20:51:33.865Z,7.96
2023-04-09T20:56:37.176Z,7.98
2023-04-09T21:01:40.742Z,7.85
2023-04-09T21:06:45.748Z,7.89
2023-04-09T21:11:48.878Z,7.89
2023-04-09T21:16:52.628Z,7.60
2023-04-09T21:21:57.729Z,7.72
2023-04-09T21:27:01.854Z,7.82
2023-04-09T21:32:05.374Z,7.84
2023-04-09T21:37:10.382Z,7.91
2023-04-09T21:42:13.910Z,7.77
2023-04-09T21:47:17.404Z,7.70
2023-04-09T21:52:22.597Z,7.71
2023-04-09T21:57:26.210Z,7.78
2023-04-09T22:02:29.824Z,7.91
2023-04-09T22:07:36.208Z,8.01
2023-04-09T22:12:39.734Z,7.98
2023-04-09T22:17:43.253Z,7.91
2023-04-09T22:22:48.478Z,7.93
2023-04-09T22:27:53.484Z,7.93
2023-04-09T22:32:57.086Z,7.84
2023-04-09T22:38:03.399Z,7.97
2023-04-09T22:43:07.590Z,7.98
2023-04-09T22:48:11.113Z,8.02
2023-04-09T22:53:19.226Z,8.12
2023-04-09T22:58:23.201Z,7.92
2023-04-09T23:03:27.128Z,7.79
2023-04-09T23:08:32.065Z,7.66
2023-04-09T23:13:35.790Z,7.82
2023-04-09T23:18:39.269Z,7.56
2023-04-09T23:23:44.171Z,7.81
2023-04-09T23:28:47.352Z,8.01
2023-04-09T23:33:52.066Z,8.17
2023-04-09T23:38:56.981Z,8.32
2023-04-09T23:44:00.501Z,8.40
2023-04-09T23:49:04.097Z,8.36
2023-04-09T23:54:09.014Z,8.41
2023-04-09T23:59:12.937Z,8.54
